Terminal Aerodrome Forecast
Issued by NWS El Paso, TX

Home | Current Version | Previous Version | Text Only | Print | Product List | Glossary On
Versions: 1 2 3 4 5 6 7 8 9 10 11 12 13 14
148
FTUS44 KEPZ 291742
TAFELP
TAF
KELP 291742Z 2918/3018 36011KT P6SM SCT060 BKN080
     FM300300 04006KT P6SM SCT100 SCT250
     FM300600 15005KT P6SM SKC
     FM301200 23009KT P6SM SKC=

USA.gov is the U.S. government's official web portal to all federal, state and local government web resources and services.